createdAt,value
2023-05-09T00:00:27.633Z,100132.38
2023-05-09T00:02:55.111Z,100131.24
2023-05-09T00:05:22.849Z,100131.95
2023-05-09T00:07:50.293Z,100130.83
2023-05-09T00:10:17.658Z,100131.13
2023-05-09T00:12:45.130Z,100131.04
2023-05-09T00:15:13.350Z,100126.98
2023-05-09T00:17:40.978Z,100134.27
2023-05-09T00:20:12.125Z,100134.39
2023-05-09T00:22:41.090Z,100136.05
2023-05-09T00:25:09.464Z,100136.13
2023-05-09T00:27:37.011Z,100140.75
2023-05-09T00:30:04.910Z,100140.42
2023-05-09T00:32:33.421Z,100141.46
2023-05-09T00:35:00.930Z,100143.30
2023-05-09T00:37:29.420Z,100142.27
2023-05-09T00:39:56.744Z,100142.27
2023-05-09T00:42:24.325Z,100146.27
2023-05-09T00:44:51.769Z,100144.88
2023-05-09T00:47:19.026Z,100146.40
2023-05-09T00:49:46.580Z,100141.94
2023-05-09T00:52:14.144Z,100141.86
2023-05-09T00:54:41.594Z,100140.80
2023-05-09T00:57:09.173Z,100139.52
2023-05-09T00:59:36.729Z,100139.66
2023-05-09T01:02:04.286Z,100140.23
2023-05-09T01:04:32.556Z,100140.66
2023-05-09T01:06:59.965Z,100133.83
2023-05-09T01:09:39.247Z,100136.02
2023-05-09T01:12:13.148Z,100134.83
2023-05-09T01:15:02.533Z,100130.10
2023-05-09T01:17:39.048Z,100129.81
2023-05-09T01:20:15.554Z,100131.61
2023-05-09T01:22:47.525Z,100128.77
2023-05-09T01:25:35.451Z,100131.73
2023-05-09T01:28:08.635Z,100132.00
2023-05-09T01:30:36.615Z,100132.91
2023-05-09T01:33:05.532Z,100133.02
2023-05-09T01:35:33.676Z,100128.40
2023-05-09T01:38:01.455Z,100130.77
2023-05-09T01:40:29.823Z,100134.95
2023-05-09T01:42:58.512Z,100130.27
2023-05-09T01:45:26.574Z,100131.46
2023-05-09T01:47:54.212Z,100136.16
2023-05-09T01:50:21.759Z,100130.44
2023-05-09T01:52:50.093Z,100131.64
2023-05-09T01:55:17.939Z,100130.51
2023-05-09T01:57:45.714Z,100128.34
2023-05-09T02:00:14.185Z,100128.65
2023-05-09T02:02:41.526Z,100130.77
2023-05-09T02:05:10.332Z,100132.52
2023-05-09T02:07:38.195Z,100135.84
2023-05-09T02:10:05.958Z,100136.69
2023-05-09T02:12:33.929Z,100137.50
2023-05-09T02:15:01.788Z,100133.59
2023-05-09T02:17:31.059Z,100137.33
2023-05-09T02:19:58.953Z,100136.54
2023-05-09T02:22:26.623Z,100136.61
2023-05-09T02:24:54.179Z,100137.21
2023-05-09T02:27:21.743Z,100141.06
2023-05-09T02:29:51.055Z,100141.19
2023-05-09T02:32:20.477Z,100141.06
2023-05-09T02:34:48.099Z,100143.91
2023-05-09T02:37:15.566Z,100143.21
2023-05-09T02:39:43.437Z,100140.55
2023-05-09T02:42:11.537Z,100138.46
2023-05-09T02:44:42.021Z,100137.52
2023-05-09T02:47:09.894Z,100135.41
2023-05-09T02:49:37.748Z,100138.52
2023-05-09T02:52:05.283Z,100140.90
2023-05-09T02:54:32.889Z,100139.98
2023-05-09T02:57:00.734Z,100142.77
2023-05-09T02:59:28.819Z,100145.42
2023-05-09T03:01:57.430Z,100151.86
2023-05-09T03:04:26.091Z,100156.25
2023-05-09T03:06:53.649Z,100152.22
2023-05-09T03:09:21.807Z,100148.79
2023-05-09T03:11:50.497Z,100150.33
2023-05-09T03:14:18.678Z,100148.66
2023-05-09T03:16:46.213Z,100150.36
2023-05-09T03:19:21.264Z,100149.05
2023-05-09T03:21:49.161Z,100152.44
2023-05-09T03:24:17.197Z,100153.52
2023-05-09T03:26:44.863Z,100153.94
2023-05-09T03:29:12.327Z,100156.48
2023-05-09T03:31:39.699Z,100159.39
2023-05-09T03:34:07.435Z,100160.64
2023-05-09T03:36:34.885Z,100165.36
2023-05-09T03:39:02.671Z,100167.78
2023-05-09T03:41:30.440Z,100170.45
2023-05-09T03:43:58.178Z,100170.13
2023-05-09T03:46:26.201Z,100174.03
2023-05-09T03:48:53.817Z,100173.06
2023-05-09T03:51:21.793Z,100178.58
2023-05-09T03:53:49.852Z,100174.90
2023-05-09T03:56:17.539Z,100177.50
2023-05-09T03:58:50.918Z,100177.52
2023-05-09T04:01:18.520Z,100179.68
2023-05-09T04:03:46.771Z,100174.17
2023-05-09T04:06:14.921Z,100177.71
2023-05-09T04:08:44.258Z,100178.73
2023-05-09T04:11:11.981Z,100183.91
2023-05-09T04:13:41.692Z,100186.94
2023-05-09T04:16:41.593Z,100184.02
2023-05-09T04:19:09.893Z,100189.33
2023-05-09T04:21:38.672Z,100186.73
2023-05-09T04:24:07.657Z,100188.07
2023-05-09T04:26:46.500Z,100193.10
2023-05-09T04:29:16.707Z,100184.77
2023-05-09T04:31:48.843Z,100184.04
2023-05-09T04:34:16.955Z,100184.35
2023-05-09T04:36:46.046Z,100190.30
2023-05-09T04:39:14.326Z,100187.14
2023-05-09T04:41:50.188Z,100188.70
2023-05-09T04:44:18.857Z,100195.68
2023-05-09T04:46:46.957Z,100188.73
2023-05-09T04:49:14.591Z,100191.59
2023-05-09T04:51:42.359Z,100195.04
2023-05-09T04:54:09.772Z,100190.91
2023-05-09T04:56:37.985Z,100190.63
2023-05-09T04:59:05.980Z,100187.47
2023-05-09T05:01:33.562Z,100188.58
2023-05-09T05:04:01.798Z,100189.57
2023-05-09T05:06:30.375Z,100189.23
2023-05-09T05:08:58.439Z,100183.54
2023-05-09T05:11:25.698Z,100190.61
2023-05-09T05:13:53.112Z,100187.95
2023-05-09T05:16:20.998Z,100189.91
2023-05-09T05:18:48.882Z,100192.70
2023-05-09T05:21:16.740Z,100192.80
2023-05-09T05:23:45.694Z,100194.30
2023-05-09T05:26:13.709Z,100196.17
2023-05-09T05:28:41.495Z,100195.48
2023-05-09T05:31:09.117Z,100193.89
2023-05-09T05:33:37.214Z,100198.58
2023-05-09T05:36:05.521Z,100198.76
2023-05-09T05:38:33.264Z,100196.02
2023-05-09T05:41:01.518Z,100201.52
2023-05-09T05:43:29.790Z,100201.43
2023-05-09T05:46:00.327Z,100201.08
2023-05-09T05:48:29.214Z,100202.45
2023-05-09T05:50:56.579Z,100204.34
2023-05-09T05:53:26.495Z,100202.42
2023-05-09T05:55:54.447Z,100202.52
2023-05-09T05:58:21.731Z,100206.46
2023-05-09T06:00:49.871Z,100207.22
2023-05-09T06:03:17.927Z,100204.70
2023-05-09T06:05:50.186Z,100202.11
2023-05-09T06:08:17.980Z,100204.04
2023-05-09T06:10:45.636Z,100204.61
2023-05-09T06:13:13.612Z,100206.38
2023-05-09T06:15:45.365Z,100202.02
2023-05-09T06:18:12.666Z,100197.48
2023-05-09T06:20:40.507Z,100199.94
2023-05-09T06:23:08.051Z,100196.81
2023-05-09T06:25:35.502Z,100194.19
2023-05-09T06:28:03.160Z,100193.19
2023-05-09T06:30:30.512Z,100191.30
2023-05-09T06:32:58.648Z,100195.14
2023-05-09T06:35:26.348Z,100196.37
2023-05-09T06:37:53.610Z,100193.75
2023-05-09T06:40:21.269Z,100194.13
2023-05-09T06:42:48.837Z,100195.67
2023-05-09T06:45:17.251Z,100194.88
2023-05-09T06:47:45.221Z,100188.02
2023-05-09T06:50:12.935Z,100189.02
2023-05-09T06:52:40.592Z,100192.07
2023-05-09T06:55:09.565Z,100189.80
2023-05-09T06:57:37.132Z,100189.60
2023-05-09T07:00:05.298Z,100188.77
2023-05-09T07:02:33.065Z,100191.14
2023-05-09T07:05:00.979Z,100186.13
2023-05-09T07:07:28.595Z,100189.25
2023-05-09T07:10:07.356Z,100188.05
2023-05-09T07:12:38.543Z,100186.65
2023-05-09T07:15:06.970Z,100189.15
2023-05-09T07:17:35.967Z,100188.02
2023-05-09T07:20:05.149Z,100187.98
2023-05-09T07:22:34.112Z,100187.80
2023-05-09T07:25:03.786Z,100184.64
2023-05-09T07:27:31.311Z,100186.46
2023-05-09T07:29:58.776Z,100178.77
2023-05-09T07:32:29.020Z,100180.82
2023-05-09T07:34:56.650Z,100179.66
2023-05-09T07:37:24.416Z,100182.07
2023-05-09T07:39:52.479Z,100179.04
2023-05-09T07:42:19.867Z,100177.40
2023-05-09T07:44:47.392Z,100170.28
2023-05-09T07:47:14.744Z,100172.74
2023-05-09T07:49:43.614Z,100163.42
2023-05-09T07:52:11.401Z,100161.36
2023-05-09T07:54:38.988Z,100163.63
2023-05-09T07:57:06.629Z,100154.83
2023-05-09T07:59:34.383Z,100153.23
2023-05-09T08:02:02.087Z,100149.70
2023-05-09T08:04:30.695Z,100153.14
2023-05-09T08:06:59.650Z,100144.35
2023-05-09T08:09:27.005Z,100136.54
2023-05-09T08:11:54.435Z,100133.59
2023-05-09T08:14:22.012Z,100133.72
2023-05-09T08:16:49.361Z,100130.82
2023-05-09T08:19:17.217Z,100125.86
2023-05-09T08:21:44.680Z,100132.16
2023-05-09T08:24:12.033Z,100121.77
2023-05-09T08:26:39.153Z,100127.63
2023-05-09T08:29:06.637Z,100124.67
2023-05-09T08:31:34.162Z,100124.81
2023-05-09T08:34:02.374Z,100121.60
2023-05-09T08:36:30.229Z,100124.58
2023-05-09T08:38:57.589Z,100119.56
2023-05-09T08:41:25.552Z,100117.76
2023-05-09T08:43:53.427Z,100117.63
2023-05-09T08:46:23.760Z,100110.23
2023-05-09T08:48:51.820Z,100112.95
2023-05-09T08:51:19.082Z,100112.59
2023-05-09T08:53:46.831Z,100111.16
2023-05-09T08:56:14.033Z,100103.47
2023-05-09T08:58:41.635Z,100098.82
2023-05-09T09:01:09.989Z,100097.68
2023-05-09T09:03:37.680Z,100095.58
2023-05-09T09:06:05.237Z,100093.43
2023-05-09T09:08:33.004Z,100088.48
2023-05-09T09:11:00.663Z,100088.10
2023-05-09T09:13:28.680Z,100085.22
2023-05-09T09:15:56.294Z,100072.92
2023-05-09T09:18:24.159Z,100074.15
2023-05-09T09:20:52.660Z,100077.38
2023-05-09T09:23:20.919Z,100078.25
2023-05-09T09:25:48.717Z,100082.16
2023-05-09T09:28:16.553Z,100082.79
2023-05-09T09:30:49.795Z,100078.43
2023-05-09T09:33:21.650Z,100078.36
2023-05-09T09:35:50.192Z,100079.20
2023-05-09T09:38:18.561Z,100072.84
2023-05-09T09:40:51.751Z,100069.07
2023-05-09T09:43:19.504Z,100074.05
2023-05-09T09:45:51.425Z,100078.42
2023-05-09T09:48:19.072Z,100076.52
2023-05-09T09:50:47.888Z,100083.83
2023-05-09T09:53:15.493Z,100078.31
2023-05-09T09:55:52.362Z,100071.77
2023-05-09T09:58:22.203Z,100071.52
2023-05-09T10:00:54.290Z,100068.45
2023-05-09T10:03:22.245Z,100062.11
2023-05-09T10:05:49.764Z,100058.83
2023-05-09T10:08:17.528Z,100063.77
2023-05-09T10:10:45.401Z,100065.25
2023-05-09T10:13:13.166Z,100065.11
2023-05-09T10:15:52.380Z,100072.83
2023-05-09T10:18:23.510Z,100069.82
2023-05-09T10:20:51.203Z,100064.16
2023-05-09T10:23:18.651Z,100065.86
2023-05-09T10:25:49.901Z,100066.36
2023-05-09T10:28:18.379Z,100066.36
2023-05-09T10:30:58.481Z,100066.66
2023-05-09T10:33:28.081Z,100063.11
2023-05-09T10:35:56.432Z,100059.45
2023-05-09T10:38:25.207Z,100051.09
2023-05-09T10:40:53.681Z,100043.52
2023-05-09T10:43:24.343Z,100049.17
2023-05-09T10:45:52.235Z,100057.18
2023-05-09T10:48:19.637Z,100056.06
2023-05-09T10:50:47.216Z,100056.69
2023-05-09T10:53:17.227Z,100057.58
2023-05-09T10:55:55.727Z,100064.78
2023-05-09T10:58:27.278Z,100065.36
2023-05-09T11:00:57.121Z,100063.23
2023-05-09T11:03:25.652Z,100064.02
2023-05-09T11:05:54.275Z,100062.23
2023-05-09T11:08:22.736Z,100060.88
2023-05-09T11:10:50.296Z,100061.69
2023-05-09T11:13:24.764Z,100063.64
2023-05-09T11:16:02.245Z,100054.41
2023-05-09T11:18:29.870Z,100052.92
2023-05-09T11:20:57.240Z,100054.88
2023-05-09T11:23:26.422Z,100051.73
2023-05-09T11:25:54.190Z,100038.43
2023-05-09T11:28:32.426Z,100030.23
2023-05-09T11:31:18.766Z,100025.94
2023-05-09T11:33:47.483Z,100033.08
2023-05-09T11:36:20.740Z,100029.77
2023-05-09T11:38:48.266Z,100028.98
2023-05-09T11:41:16.207Z,100031.39
2023-05-09T11:43:44.820Z,100032.50
2023-05-09T11:46:13.228Z,100032.43
2023-05-09T11:48:42.094Z,100037.30
2023-05-09T11:51:16.265Z,100039.50
2023-05-09T11:53:47.496Z,100043.07
2023-05-09T11:56:15.073Z,100041.88
2023-05-09T11:58:42.835Z,100035.23
2023-05-09T12:01:12.233Z,100035.33
2023-05-09T12:03:45.799Z,100027.46
2023-05-09T12:06:15.545Z,100024.91
2023-05-09T12:08:44.023Z,100016.38
2023-05-09T12:11:11.682Z,100012.84
2023-05-09T12:13:48.777Z,100009.84
2023-05-09T12:16:16.976Z,100013.56
2023-05-09T12:18:47.902Z,100008.73
2023-05-09T12:21:15.978Z,100012.33
2023-05-09T12:23:44.631Z,100010.80
2023-05-09T12:26:12.704Z,100014.38
2023-05-09T12:28:40.270Z,100014.70
2023-05-09T12:31:08.144Z,100013.53
2023-05-09T12:33:37.740Z,100011.11
2023-05-09T12:36:06.792Z,100007.38
2023-05-09T12:38:34.297Z,100005.91
2023-05-09T12:41:06.688Z,100007.23
2023-05-09T12:43:36.530Z,100002.08
2023-05-09T12:46:04.141Z,100004.31
2023-05-09T12:48:35.216Z,100008.55
2023-05-09T12:51:03.558Z,100004.10
2023-05-09T12:53:32.039Z,100005.23
2023-05-09T12:56:03.885Z,100012.85
2023-05-09T12:58:34.535Z,100009.57
2023-05-09T13:01:04.271Z,100008.02
2023-05-09T13:03:38.159Z,100006.29
2023-05-09T13:06:06.932Z,100006.06
2023-05-09T13:08:34.492Z,100006.89
2023-05-09T13:11:14.935Z,100008.98
2023-05-09T13:13:44.081Z,100004.88
2023-05-09T13:16:13.469Z,99995.77
2023-05-09T13:18:43.264Z,99992.90
2023-05-09T13:21:10.932Z,99992.13
2023-05-09T13:23:38.892Z,99990.61
2023-05-09T13:26:06.763Z,99990.16
2023-05-09T13:28:34.527Z,99995.81
2023-05-09T13:31:03.370Z,99991.28
2023-05-09T13:33:31.258Z,99991.17
2023-05-09T13:35:59.045Z,99993.22
2023-05-09T13:38:27.449Z,99989.35
2023-05-09T13:40:55.314Z,99993.57
2023-05-09T13:43:24.195Z,99991.71
2023-05-09T13:45:51.992Z,99997.45
2023-05-09T13:48:19.799Z,99996.00
2023-05-09T13:50:47.437Z,99992.96
2023-05-09T13:53:14.721Z,99992.84
2023-05-09T13:55:43.212Z,99989.53
2023-05-09T13:58:10.866Z,99988.54
2023-05-09T14:00:38.930Z,99994.06
2023-05-09T14:03:07.823Z,99994.30
2023-05-09T14:05:35.486Z,99993.50
2023-05-09T14:08:03.775Z,99997.65
2023-05-09T14:10:31.525Z,99991.73
2023-05-09T14:12:59.123Z,99990.27
2023-05-09T14:15:26.641Z,99990.91
2023-05-09T14:17:54.417Z,99988.33
2023-05-09T14:20:22.077Z,99990.04
2023-05-09T14:22:49.562Z,99989.87
2023-05-09T14:25:17.298Z,99988.55
2023-05-09T14:27:45.158Z,99987.90
2023-05-09T14:30:13.048Z,99990.07
2023-05-09T14:32:41.086Z,99990.93
2023-05-09T14:35:09.078Z,99989.38
2023-05-09T14:37:36.822Z,99989.98
2023-05-09T14:40:05.872Z,99986.91
2023-05-09T14:42:33.172Z,99984.41
2023-05-09T14:45:01.677Z,99983.52
2023-05-09T14:47:29.025Z,99983.80
2023-05-09T14:49:56.990Z,99984.69
2023-05-09T14:52:24.430Z,99990.54
2023-05-09T14:54:51.987Z,99985.95
2023-05-09T14:57:19.648Z,99987.65
2023-05-09T14:59:47.146Z,99983.57
2023-05-09T15:02:15.176Z,99987.73
2023-05-09T15:04:44.169Z,99996.11
2023-05-09T15:07:12.920Z,99998.29
2023-05-09T15:09:40.518Z,99997.86
2023-05-09T15:12:07.975Z,100001.90
2023-05-09T15:14:35.532Z,100001.33
2023-05-09T15:17:04.565Z,99997.73
2023-05-09T15:19:33.311Z,99999.54
2023-05-09T15:22:01.182Z,99997.84
2023-05-09T15:24:28.849Z,100000.46
2023-05-09T15:26:57.123Z,100000.22
2023-05-09T15:29:24.576Z,99998.28
2023-05-09T15:31:52.350Z,100002.34
2023-05-09T15:34:19.696Z,100004.50
2023-05-09T15:36:47.455Z,100002.73
2023-05-09T15:39:16.461Z,100007.07
2023-05-09T15:41:44.026Z,100008.48
2023-05-09T15:44:11.804Z,100011.89
2023-05-09T15:46:40.092Z,100007.70
2023-05-09T15:49:07.615Z,100011.81
2023-05-09T15:51:35.266Z,100016.36
2023-05-09T15:54:02.727Z,100012.34
2023-05-09T15:56:30.284Z,100011.06
2023-05-09T15:58:59.174Z,100009.42
2023-05-09T16:01:26.757Z,100004.24
2023-05-09T16:03:54.571Z,100006.81
2023-05-09T16:06:22.467Z,100007.94
2023-05-09T16:08:50.742Z,100005.89
2023-05-09T16:11:18.320Z,100010.83
2023-05-09T16:13:47.619Z,100011.04
2023-05-09T16:16:15.304Z,100012.58
2023-05-09T16:18:43.239Z,100008.79
2023-05-09T16:21:10.835Z,100006.33
2023-05-09T16:23:39.887Z,100002.40
2023-05-09T16:26:07.468Z,100001.81
2023-05-09T16:28:35.109Z,99999.97
2023-05-09T16:31:05.121Z,99996.88
2023-05-09T16:33:32.987Z,100002.66
2023-05-09T16:36:00.448Z,100001.61
2023-05-09T16:38:28.108Z,99999.67
2023-05-09T16:40:55.580Z,100002.27
2023-05-09T16:43:22.960Z,99999.94
2023-05-09T16:45:50.375Z,99998.92
2023-05-09T16:48:18.247Z,100000.87
2023-05-09T16:50:45.799Z,99999.75
2023-05-09T16:53:13.262Z,100001.04
2023-05-09T16:55:41.226Z,100000.89
2023-05-09T16:58:08.824Z,100000.25
2023-05-09T17:00:36.548Z,100005.25
2023-05-09T17:03:04.150Z,100017.55
2023-05-09T17:05:31.981Z,100013.52
2023-05-09T17:07:59.526Z,100013.92
2023-05-09T17:10:27.088Z,100015.09
2023-05-09T17:12:58.630Z,100022.45
2023-05-09T17:15:27.224Z,100018.05
2023-05-09T17:17:56.310Z,100023.27
2023-05-09T17:20:26.539Z,100025.98
2023-05-09T17:22:54.428Z,100022.70
2023-05-09T17:25:22.907Z,100027.05
2023-05-09T17:27:52.520Z,100026.78
2023-05-09T17:30:22.801Z,100027.05
2023-05-09T17:32:50.958Z,100031.48
2023-05-09T17:35:23.795Z,100034.95
2023-05-09T17:37:51.875Z,100039.45
2023-05-09T17:40:19.916Z,100041.64
2023-05-09T17:42:47.477Z,100042.52
2023-05-09T17:45:14.930Z,100040.52
2023-05-09T17:47:43.035Z,100039.64
2023-05-09T17:50:14.648Z,100038.01
2023-05-09T17:52:42.325Z,100043.91
2023-05-09T17:55:10.595Z,100044.65
2023-05-09T17:57:38.153Z,100046.29
2023-05-09T18:00:09.410Z,100046.83
2023-05-09T18:02:44.719Z,100045.47
2023-05-09T18:05:13.764Z,100047.41
2023-05-09T18:07:41.492Z,100044.95
2023-05-09T18:10:09.772Z,100045.90
2023-05-09T18:12:37.491Z,100045.30
2023-05-09T18:15:06.124Z,100043.27
2023-05-09T18:17:33.598Z,100044.15
2023-05-09T18:20:01.131Z,100046.65
2023-05-09T18:22:28.915Z,100044.44
2023-05-09T18:24:56.461Z,100046.24
2023-05-09T18:27:24.148Z,100045.96
2023-05-09T18:29:51.885Z,100048.57
2023-05-09T18:32:19.953Z,100045.14
2023-05-09T18:34:48.747Z,100044.65
2023-05-09T18:37:17.538Z,100042.96
2023-05-09T18:39:45.916Z,100042.06
2023-05-09T18:42:16.167Z,100041.61
2023-05-09T18:44:44.303Z,100039.98
2023-05-09T18:47:12.392Z,100040.98
2023-05-09T18:49:40.139Z,100045.32
2023-05-09T18:52:08.520Z,100046.58
2023-05-09T18:54:36.892Z,100047.00
2023-05-09T18:57:04.195Z,100046.64
2023-05-09T18:59:32.145Z,100044.25
2023-05-09T19:01:59.672Z,100045.84
2023-05-09T19:04:28.015Z,100043.41
2023-05-09T19:06:55.700Z,100045.64
2023-05-09T19:09:23.384Z,100050.11
2023-05-09T19:11:50.830Z,100052.11
2023-05-09T19:14:20.948Z,100050.80
2023-05-09T19:16:54.158Z,100057.67
2023-05-09T19:19:22.626Z,100059.54
2023-05-09T19:21:50.908Z,100054.61
2023-05-09T19:24:18.668Z,100054.77
2023-05-09T19:26:46.234Z,100056.73
2023-05-09T19:29:13.878Z,100059.64
2023-05-09T19:31:41.543Z,100059.67
2023-05-09T19:34:08.998Z,100059.22
2023-05-09T19:36:36.665Z,100058.61
2023-05-09T19:39:05.653Z,100060.77
2023-05-09T19:41:33.242Z,100064.02
2023-05-09T19:44:00.774Z,100066.80
2023-05-09T19:46:28.239Z,100070.92
2023-05-09T19:48:55.887Z,100070.79
2023-05-09T19:51:23.651Z,100066.86
2023-05-09T19:53:51.114Z,100069.06
2023-05-09T19:56:18.873Z,100064.58
2023-05-09T19:58:50.017Z,100062.73
2023-05-09T20:01:17.863Z,100062.72
2023-05-09T20:03:47.177Z,100061.36
2023-05-09T20:06:15.053Z,100060.85
2023-05-09T20:08:45.170Z,100064.80
2023-05-09T20:11:16.215Z,100063.32
2023-05-09T20:13:45.312Z,100063.85
2023-05-09T20:16:13.333Z,100065.10
2023-05-09T20:18:41.363Z,100060.92
2023-05-09T20:21:10.905Z,100062.30
2023-05-09T20:23:40.006Z,100058.60
2023-05-09T20:26:07.804Z,100061.08
2023-05-09T20:28:35.793Z,100058.91
2023-05-09T20:31:03.954Z,100059.06
2023-05-09T20:33:31.715Z,100056.48
2023-05-09T20:35:59.681Z,100056.19
2023-05-09T20:38:27.547Z,100054.92
2023-05-09T20:40:55.309Z,100048.79
2023-05-09T20:43:23.072Z,100051.04
2023-05-09T20:45:52.240Z,100050.25
2023-05-09T20:48:23.216Z,100046.41
2023-05-09T20:50:51.180Z,100049.18
2023-05-09T20:53:18.849Z,100047.09
2023-05-09T20:55:47.795Z,100050.77
2023-05-09T20:58:16.722Z,100049.59
2023-05-09T21:00:47.262Z,100052.12
2023-05-09T21:03:15.215Z,100057.05
2023-05-09T21:05:42.886Z,100058.62
2023-05-09T21:08:10.253Z,100057.30
2023-05-09T21:10:37.694Z,100056.44
2023-05-09T21:13:05.481Z,100054.27
2023-05-09T21:15:32.917Z,100056.70
2023-05-09T21:18:00.261Z,100051.67
2023-05-09T21:20:27.933Z,100052.52
2023-05-09T21:22:55.487Z,100053.52
2023-05-09T21:25:23.255Z,100049.77
2023-05-09T21:27:50.809Z,100050.36
2023-05-09T21:30:18.676Z,100047.02
2023-05-09T21:32:46.361Z,100052.91
2023-05-09T21:35:15.638Z,100053.06
2023-05-09T21:37:43.510Z,100050.80
2023-05-09T21:40:11.470Z,100054.91
2023-05-09T21:42:41.089Z,100054.80
2023-05-09T21:45:09.088Z,100055.48
2023-05-09T21:47:37.016Z,100049.65
2023-05-09T21:50:04.986Z,100048.16
2023-05-09T21:52:32.541Z,100046.26
2023-05-09T21:54:59.918Z,100047.73
2023-05-09T21:57:27.551Z,100049.14
2023-05-09T21:59:56.449Z,100052.77
2023-05-09T22:02:23.968Z,100054.10
2023-05-09T22:04:51.576Z,100051.36
2023-05-09T22:07:19.030Z,100052.75
2023-05-09T22:09:46.597Z,100046.77
2023-05-09T22:12:13.935Z,100048.00
2023-05-09T22:14:48.858Z,100043.02
2023-05-09T22:17:24.645Z,100041.55
2023-05-09T22:19:52.421Z,100039.69
2023-05-09T22:22:20.247Z,100035.98
2023-05-09T22:24:47.909Z,100033.48
2023-05-09T22:27:15.301Z,100031.74
2023-05-09T22:29:43.023Z,100032.73
2023-05-09T22:32:10.698Z,100029.33
2023-05-09T22:34:38.350Z,100026.33
2023-05-09T22:37:06.637Z,100022.69
2023-05-09T22:39:34.090Z,100019.52
2023-05-09T22:42:04.317Z,100018.05
2023-05-09T22:44:32.795Z,100019.16
2023-05-09T22:47:00.753Z,100019.66
2023-05-09T22:49:28.629Z,100017.73
2023-05-09T22:51:56.177Z,100016.70
2023-05-09T22:54:24.058Z,100013.00
2023-05-09T22:56:51.502Z,100014.55
2023-05-09T22:59:18.983Z,100008.30
2023-05-09T23:01:46.747Z,100008.46
2023-05-09T23:04:14.486Z,100005.92
2023-05-09T23:06:42.045Z,100009.84
2023-05-09T23:09:09.397Z,100010.66
2023-05-09T23:11:37.062Z,100006.81
2023-05-09T23:14:05.035Z,100009.70
2023-05-09T23:16:32.520Z,100004.55
2023-05-09T23:19:00.180Z,100005.88
2023-05-09T23:21:27.710Z,100001.71
2023-05-09T23:23:55.070Z,100003.16
2023-05-09T23:26:22.623Z,100003.46
2023-05-09T23:28:50.083Z,100003.11
2023-05-09T23:31:17.917Z,100000.58
2023-05-09T23:33:45.405Z,99998.98
2023-05-09T23:36:13.095Z,99999.41
2023-05-09T23:38:40.424Z,99997.42
2023-05-09T23:41:07.772Z,99993.45
2023-05-09T23:43:35.160Z,99992.92
2023-05-09T23:46:02.891Z,99990.52
2023-05-09T23:48:31.368Z,99990.48
2023-05-09T23:50:59.133Z,99990.41
2023-05-09T23:53:26.692Z,99991.30
2023-05-09T23:55:54.249Z,99984.31
2023-05-09T23:58:21.708Z,99984.09
